createdAt,value
2019-01-05T00:00:04.875Z,985.05
2019-01-05T00:01:04.676Z,984.99
2019-01-05T00:02:04.646Z,984.88
2019-01-05T00:03:04.635Z,984.85
2019-01-05T00:04:05.188Z,985.02
2019-01-05T00:05:05.228Z,985.10
2019-01-05T00:06:05.369Z,985.10
2019-01-05T00:07:04.775Z,985.05
2019-01-05T00:08:05.121Z,984.99
2019-01-05T00:09:05.528Z,984.82
2019-01-05T00:10:05.177Z,984.99
2019-01-05T00:11:05.130Z,984.99
2019-01-05T00:12:04.736Z,984.93
2019-01-05T00:13:05.407Z,984.99
2019-01-05T00:14:05.142Z,984.88
2019-01-05T00:15:05.152Z,984.85
2019-01-05T00:16:05.233Z,984.93
2019-01-05T00:17:05.108Z,984.90
2019-01-05T00:18:04.997Z,984.90
2019-01-05T00:19:05.274Z,984.88
2019-01-05T00:20:04.618Z,985.13
2019-01-05T00:21:04.714Z,984.72
2019-01-05T00:22:05.165Z,984.93
2019-01-05T00:23:04.763Z,984.93
2019-01-05T00:24:04.795Z,984.85
2019-01-05T00:25:05.256Z,984.85
2019-01-05T00:26:05.305Z,984.93
2019-01-05T00:27:05.302Z,984.85
2019-01-05T00:28:04.884Z,984.85
2019-01-05T00:29:05.403Z,984.82
2019-01-05T00:30:04.843Z,984.82
2019-01-05T00:31:05.411Z,984.82
2019-01-05T00:32:05.259Z,984.99
2019-01-05T00:33:05.332Z,985.04
2019-01-05T00:34:04.921Z,984.90
2019-01-05T00:35:04.773Z,984.84
2019-01-05T00:36:05.231Z,984.82
2019-01-05T00:37:05.272Z,984.93
2019-01-05T00:38:05.405Z,984.82
2019-01-05T00:39:04.719Z,984.93
2019-01-05T00:40:04.957Z,985.01
2019-01-05T00:41:05.276Z,984.84
2019-01-05T00:42:05.229Z,984.71
2019-01-05T00:43:04.739Z,984.84
2019-01-05T00:44:05.243Z,984.68
2019-01-05T00:45:05.309Z,984.77
2019-01-05T00:46:04.688Z,984.77
2019-01-05T00:47:04.876Z,984.77
2019-01-05T00:48:04.779Z,984.77
2019-01-05T00:49:05.379Z,984.71
2019-01-05T00:50:05.048Z,984.77
2019-01-05T00:51:05.383Z,984.74
2019-01-05T00:52:04.567Z,984.77
2019-01-05T00:53:04.607Z,984.68
2019-01-05T00:54:04.648Z,984.68
2019-01-05T00:55:04.743Z,984.77
2019-01-05T00:56:04.842Z,984.68
2019-01-05T00:57:04.900Z,984.78
2019-01-05T00:58:04.908Z,984.68
2019-01-05T00:59:05.055Z,984.74
2019-01-05T01:00:05.128Z,984.71
2019-01-05T01:01:05.398Z,984.71
2019-01-05T01:02:04.730Z,984.60
2019-01-05T01:03:04.874Z,984.62
2019-01-05T01:04:09.839Z,984.62
2019-01-05T01:05:05.315Z,984.74
2019-01-05T01:06:04.840Z,984.71
2019-01-05T01:07:04.865Z,984.71
2019-01-05T01:08:05.403Z,984.54
2019-01-05T01:09:05.579Z,984.68
2019-01-05T01:10:04.937Z,984.74
2019-01-05T01:11:05.011Z,984.62
2019-01-05T01:12:05.240Z,984.57
2019-01-05T01:13:05.186Z,984.54
2019-01-05T01:14:05.482Z,984.57
2019-01-05T01:15:05.119Z,984.48
2019-01-05T01:16:05.393Z,984.51
2019-01-05T01:17:04.789Z,984.48
2019-01-05T01:18:04.835Z,984.54
2019-01-05T01:19:05.067Z,984.59
2019-01-05T01:20:05.487Z,984.51
2019-01-05T01:21:04.498Z,984.45
2019-01-05T01:22:05.017Z,984.56
2019-01-05T01:23:04.583Z,984.42
2019-01-05T01:24:04.850Z,984.59
2019-01-05T01:25:04.913Z,984.45
2019-01-05T01:26:05.062Z,984.31
2019-01-05T01:27:05.144Z,984.59
2019-01-05T01:28:04.923Z,984.34
2019-01-05T01:29:10.388Z,984.34
2019-01-05T01:30:04.870Z,984.37
2019-01-05T01:31:05.008Z,984.39
2019-01-05T01:32:05.188Z,984.42
2019-01-05T01:33:04.556Z,984.39
2019-01-05T01:34:04.939Z,984.28
2019-01-05T01:35:05.369Z,984.23
2019-01-05T01:36:05.550Z,984.28
2019-01-05T01:37:04.685Z,984.25
2019-01-05T01:38:05.297Z,984.11
2019-01-05T01:39:05.246Z,984.36
2019-01-05T01:40:04.638Z,984.22
2019-01-05T01:41:04.577Z,984.08
2019-01-05T01:42:05.037Z,984.14
2019-01-05T01:43:05.088Z,984.03
2019-01-05T01:44:04.566Z,984.08
2019-01-05T01:45:04.867Z,984.31
2019-01-05T01:46:05.190Z,984.17
2019-01-05T01:47:05.328Z,984.14
2019-01-05T01:48:04.785Z,984.11
2019-01-05T01:49:04.753Z,984.03
2019-01-05T01:50:05.202Z,984.11
2019-01-05T01:51:05.299Z,984.00
2019-01-05T01:52:04.714Z,983.97
2019-01-05T01:53:05.029Z,983.91
2019-01-05T01:54:05.260Z,983.94
2019-01-05T01:55:04.635Z,983.91
2019-01-05T01:56:05.115Z,984.00
2019-01-05T01:57:04.880Z,983.80
2019-01-05T01:58:05.460Z,983.77
2019-01-05T01:59:04.651Z,983.74
2019-01-05T02:00:04.741Z,983.80
2019-01-05T02:01:04.689Z,983.61
2019-01-05T02:02:04.727Z,983.58
2019-01-05T02:03:06.400Z,983.63
2019-01-05T02:04:05.007Z,983.58
2019-01-05T02:05:05.298Z,983.52
2019-01-05T02:06:05.558Z,983.69
2019-01-05T02:07:04.942Z,983.61
2019-01-05T02:08:04.937Z,983.63
2019-01-05T02:09:04.574Z,983.66
2019-01-05T02:10:04.716Z,983.55
2019-01-05T02:11:05.242Z,983.58
2019-01-05T02:12:04.829Z,983.49
2019-01-05T02:13:05.502Z,983.63
2019-01-05T02:14:04.868Z,983.55
2019-01-05T02:15:05.103Z,983.52
2019-01-05T02:16:04.835Z,983.41
2019-01-05T02:17:05.367Z,983.46
2019-01-05T02:18:04.721Z,983.52
2019-01-05T02:19:04.962Z,983.49
2019-01-05T02:20:05.333Z,983.46
2019-01-05T02:21:05.206Z,983.38
2019-01-05T02:22:04.782Z,983.44
2019-01-05T02:23:05.302Z,983.43
2019-01-05T02:24:05.399Z,983.49
2019-01-05T02:25:05.487Z,983.33
2019-01-05T02:26:04.693Z,983.33
2019-01-05T02:27:04.578Z,983.38
2019-01-05T02:28:04.694Z,983.41
2019-01-05T02:29:10.023Z,983.14
2019-01-05T02:30:05.361Z,983.41
2019-01-05T02:31:04.928Z,983.22
2019-01-05T02:32:05.547Z,983.35
2019-01-05T02:33:04.759Z,983.25
2019-01-05T02:34:04.785Z,983.28
2019-01-05T02:35:04.764Z,983.30
2019-01-05T02:36:05.010Z,983.08
2019-01-05T02:37:05.569Z,983.19
2019-01-05T02:38:05.182Z,983.22
2019-01-05T02:39:05.123Z,983.38
2019-01-05T02:40:04.644Z,983.30
2019-01-05T02:41:05.087Z,983.19
2019-01-05T02:42:04.898Z,983.02
2019-01-05T02:43:05.031Z,983.19
2019-01-05T02:44:04.990Z,983.14
2019-01-05T02:45:04.534Z,983.02
2019-01-05T02:46:05.148Z,983.02
2019-01-05T02:47:05.130Z,983.11
2019-01-05T02:48:05.165Z,982.94
2019-01-05T02:49:10.477Z,983.05
2019-01-05T02:50:04.799Z,983.02
2019-01-05T02:51:05.445Z,983.02
2019-01-05T02:52:04.723Z,983.08
2019-01-05T02:53:05.045Z,982.97
2019-01-05T02:54:05.243Z,983.02
2019-01-05T02:55:05.269Z,982.75
2019-01-05T02:56:04.942Z,982.91
2019-01-05T02:57:05.209Z,982.82
2019-01-05T02:58:04.901Z,982.85
2019-01-05T02:59:05.133Z,983.08
2019-01-05T03:00:04.617Z,982.91
2019-01-05T03:01:04.668Z,982.80
2019-01-05T03:02:05.227Z,982.75
2019-01-05T03:03:05.145Z,982.91
2019-01-05T03:04:05.436Z,982.88
2019-01-05T03:05:05.016Z,982.85
2019-01-05T03:06:05.126Z,982.91
2019-01-05T03:07:05.118Z,982.66
2019-01-05T03:08:05.322Z,982.88
2019-01-05T03:09:04.735Z,982.75
2019-01-05T03:10:05.130Z,982.75
2019-01-05T03:11:05.549Z,982.55
2019-01-05T03:12:04.515Z,982.66
2019-01-05T03:13:05.364Z,982.61
2019-01-05T03:14:05.497Z,982.64
2019-01-05T03:15:04.778Z,982.55
2019-01-05T03:16:04.883Z,982.66
2019-01-05T03:17:05.186Z,982.49
2019-01-05T03:18:04.597Z,982.52
2019-01-05T03:19:04.764Z,982.63
2019-01-05T03:20:04.743Z,982.44
2019-01-05T03:21:04.829Z,982.47
2019-01-05T03:22:04.837Z,982.35
2019-01-05T03:23:05.772Z,982.41
2019-01-05T03:24:05.490Z,982.33
2019-01-05T03:25:04.602Z,982.27
2019-01-05T03:26:04.672Z,982.33
2019-01-05T03:27:05.069Z,982.41
2019-01-05T03:28:04.986Z,982.24
2019-01-05T03:29:09.632Z,982.21
2019-01-05T03:30:05.021Z,982.21
2019-01-05T03:31:05.168Z,982.16
2019-01-05T03:32:05.401Z,982.27
2019-01-05T03:33:04.912Z,982.35
2019-01-05T03:34:04.886Z,982.16
2019-01-05T03:35:05.079Z,982.35
2019-01-05T03:36:05.003Z,982.33
2019-01-05T03:37:05.157Z,982.13
2019-01-05T03:38:05.610Z,982.16
2019-01-05T03:39:05.015Z,982.24
2019-01-05T03:40:04.709Z,982.35
2019-01-05T03:41:05.094Z,982.30
2019-01-05T03:42:05.296Z,982.24
2019-01-05T03:43:05.226Z,982.13
2019-01-05T03:44:04.903Z,982.27
2019-01-05T03:45:05.147Z,982.07
2019-01-05T03:46:05.489Z,982.30
2019-01-05T03:47:05.307Z,982.24
2019-01-05T03:48:05.303Z,982.18
2019-01-05T03:49:04.685Z,982.10
2019-01-05T03:50:05.100Z,982.07
2019-01-05T03:51:05.372Z,982.10
2019-01-05T03:52:04.665Z,982.10
2019-01-05T03:53:05.036Z,982.07
2019-01-05T03:54:05.552Z,982.02
2019-01-05T03:55:09.765Z,982.10
2019-01-05T03:56:05.284Z,982.04
2019-01-05T03:57:05.119Z,982.01
2019-01-05T03:58:04.656Z,981.96
2019-01-05T03:59:04.936Z,982.10
2019-01-05T04:00:05.140Z,982.13
2019-01-05T04:01:05.149Z,981.96
2019-01-05T04:02:05.155Z,982.07
2019-01-05T04:03:04.652Z,981.96
2019-01-05T04:04:04.994Z,982.13
2019-01-05T04:05:05.560Z,982.01
2019-01-05T04:06:04.586Z,982.04
2019-01-05T04:07:04.582Z,981.96
2019-01-05T04:08:04.899Z,981.96
2019-01-05T04:09:05.462Z,981.82
2019-01-05T04:10:04.738Z,981.96
2019-01-05T04:11:04.715Z,981.82
2019-01-05T04:12:05.135Z,981.82
2019-01-05T04:13:05.461Z,981.90
2019-01-05T04:14:05.548Z,981.79
2019-01-05T04:15:04.946Z,981.84
2019-01-05T04:16:05.365Z,981.87
2019-01-05T04:17:04.822Z,981.93
2019-01-05T04:18:05.033Z,981.73
2019-01-05T04:19:05.010Z,981.68
2019-01-05T04:20:05.027Z,981.79
2019-01-05T04:21:04.580Z,981.59
2019-01-05T04:22:04.728Z,981.79
2019-01-05T04:23:05.413Z,981.76
2019-01-05T04:24:05.467Z,981.70
2019-01-05T04:25:04.626Z,981.76
2019-01-05T04:26:05.369Z,981.76
2019-01-05T04:27:05.458Z,981.79
2019-01-05T04:28:05.444Z,981.73
2019-01-05T04:29:10.560Z,981.68
2019-01-05T04:30:05.099Z,981.79
2019-01-05T04:31:04.554Z,981.82
2019-01-05T04:32:04.662Z,981.70
2019-01-05T04:33:05.132Z,981.73
2019-01-05T04:34:05.149Z,981.70
2019-01-05T04:35:05.250Z,981.79
2019-01-05T04:36:04.667Z,981.79
2019-01-05T04:37:04.982Z,981.76
2019-01-05T04:38:05.378Z,981.70
2019-01-05T04:39:05.406Z,981.59
2019-01-05T04:40:04.787Z,981.62
2019-01-05T04:41:05.411Z,981.65
2019-01-05T04:42:04.905Z,981.76
2019-01-05T04:43:05.037Z,981.52
2019-01-05T04:44:05.361Z,981.49
2019-01-05T04:45:04.508Z,981.68
2019-01-05T04:46:05.007Z,981.68
2019-01-05T04:47:05.150Z,981.56
2019-01-05T04:48:05.203Z,981.52
2019-01-05T04:49:05.404Z,981.62
2019-01-05T04:50:05.582Z,981.71
2019-01-05T04:51:04.981Z,981.52
2019-01-05T04:52:04.499Z,981.49
2019-01-05T04:53:04.604Z,981.65
2019-01-05T04:54:05.057Z,981.62
2019-01-05T04:55:05.439Z,981.49
2019-01-05T04:56:05.088Z,981.49
2019-01-05T04:57:05.318Z,981.49
2019-01-05T04:58:05.315Z,981.55
2019-01-05T04:59:05.459Z,981.41
2019-01-05T05:00:04.664Z,981.43
2019-01-05T05:01:04.740Z,981.35
2019-01-05T05:02:05.195Z,981.32
2019-01-05T05:03:09.882Z,981.38
2019-01-05T05:04:05.255Z,981.29
2019-01-05T05:05:05.370Z,981.27
2019-01-05T05:06:05.509Z,981.21
2019-01-05T05:07:04.536Z,981.10
2019-01-05T05:08:05.087Z,981.18
2019-01-05T05:09:05.199Z,981.07
2019-01-05T05:10:04.690Z,981.07
2019-01-05T05:11:05.003Z,981.02
2019-01-05T05:12:05.080Z,981.04
2019-01-05T05:13:05.073Z,981.07
2019-01-05T05:14:05.159Z,981.07
2019-01-05T05:15:05.357Z,981.04
2019-01-05T05:16:04.628Z,981.13
2019-01-05T05:17:05.323Z,981.13
2019-01-05T05:18:04.943Z,981.13
2019-01-05T05:19:05.175Z,981.16
2019-01-05T05:20:05.516Z,981.13
2019-01-05T05:21:04.628Z,981.02
2019-01-05T05:22:04.870Z,981.10
2019-01-05T05:23:05.296Z,981.07
2019-01-05T05:24:05.428Z,981.13
2019-01-05T05:25:05.235Z,981.04
2019-01-05T05:26:04.538Z,981.02
2019-01-05T05:27:05.033Z,981.02
2019-01-05T05:28:05.031Z,981.02
2019-01-05T05:29:05.121Z,981.02
2019-01-05T05:30:05.393Z,980.99
2019-01-05T05:31:05.017Z,980.99
2019-01-05T05:32:05.121Z,980.96
2019-01-05T05:33:05.477Z,980.87
2019-01-05T05:34:04.582Z,980.96
2019-01-05T05:35:04.826Z,980.79
2019-01-05T05:36:05.390Z,980.82
2019-01-05T05:37:10.356Z,980.76
2019-01-05T05:38:04.836Z,980.96
2019-01-05T05:39:04.776Z,980.82
2019-01-05T05:40:05.043Z,980.96
2019-01-05T05:41:05.216Z,980.82
2019-01-05T05:42:04.829Z,980.90
2019-01-05T05:43:05.192Z,980.99
2019-01-05T05:44:05.369Z,980.99
2019-01-05T05:45:05.280Z,980.88
2019-01-05T05:46:04.853Z,980.90
2019-01-05T05:47:05.378Z,980.90
2019-01-05T05:48:04.660Z,980.88
2019-01-05T05:49:05.024Z,980.85
2019-01-05T05:50:04.924Z,980.76
2019-01-05T05:51:05.469Z,980.76
2019-01-05T05:52:05.528Z,980.62
2019-01-05T05:53:04.681Z,980.85
2019-01-05T05:54:05.554Z,980.79
2019-01-05T05:55:04.594Z,980.85
2019-01-05T05:56:04.802Z,980.76
2019-01-05T05:57:05.091Z,980.65
2019-01-05T05:58:04.578Z,980.62
2019-01-05T05:59:05.241Z,980.85
2019-01-05T06:00:04.774Z,980.74
2019-01-05T06:01:04.693Z,980.54
2019-01-05T06:02:04.781Z,980.65
2019-01-05T06:03:05.331Z,980.62
2019-01-05T06:04:05.273Z,980.74
2019-01-05T06:05:05.387Z,980.71
2019-01-05T06:06:04.525Z,980.79
2019-01-05T06:07:04.947Z,980.74
2019-01-05T06:08:05.110Z,980.79
2019-01-05T06:09:04.836Z,980.65
2019-01-05T06:10:04.799Z,980.76
2019-01-05T06:11:04.921Z,980.71
2019-01-05T06:12:05.083Z,980.71
2019-01-05T06:13:05.183Z,980.60
2019-01-05T06:14:05.212Z,980.68
2019-01-05T06:15:05.150Z,980.74
2019-01-05T06:16:05.114Z,980.85
2019-01-05T06:17:05.225Z,980.74
2019-01-05T06:18:05.326Z,980.79
2019-01-05T06:19:05.038Z,980.82
2019-01-05T06:20:05.196Z,980.74
2019-01-05T06:21:05.232Z,980.88
2019-01-05T06:22:04.763Z,980.85
2019-01-05T06:23:04.680Z,980.90
2019-01-05T06:24:04.975Z,980.90
2019-01-05T06:25:05.010Z,980.90
2019-01-05T06:26:05.153Z,980.88
2019-01-05T06:27:05.540Z,980.76
2019-01-05T06:28:04.611Z,980.85
2019-01-05T06:29:04.696Z,980.85
2019-01-05T06:30:05.633Z,980.74
2019-01-05T06:31:04.878Z,980.90
2019-01-05T06:32:05.187Z,980.74
2019-01-05T06:33:04.751Z,980.82
2019-01-05T06:34:04.771Z,980.87
2019-01-05T06:35:04.835Z,980.85
2019-01-05T06:36:04.852Z,980.96
2019-01-05T06:37:04.553Z,980.79
2019-01-05T06:38:05.099Z,980.57
2019-01-05T06:39:05.236Z,980.96
2019-01-05T06:40:05.387Z,980.59
2019-01-05T06:41:05.545Z,980.71
2019-01-05T06:42:04.832Z,980.76
2019-01-05T06:43:05.138Z,980.73
2019-01-05T06:44:05.231Z,980.85
2019-01-05T06:45:04.589Z,980.93
2019-01-05T06:46:04.688Z,980.73
2019-01-05T06:47:04.891Z,980.90
2019-01-05T06:48:04.829Z,980.85
2019-01-05T06:49:10.170Z,980.87
2019-01-05T06:50:04.560Z,980.90
2019-01-05T06:51:04.711Z,980.79
2019-01-05T06:52:04.990Z,980.65
2019-01-05T06:53:05.325Z,980.68
2019-01-05T06:54:04.497Z,980.68
2019-01-05T06:55:04.617Z,980.62
2019-01-05T06:56:05.260Z,980.65
2019-01-05T06:57:05.114Z,980.67
2019-01-05T06:58:05.428Z,980.56
2019-01-05T06:59:05.505Z,980.70
2019-01-05T07:00:04.600Z,980.56
2019-01-05T07:01:04.896Z,980.48
2019-01-05T07:02:05.342Z,980.59
2019-01-05T07:03:05.244Z,980.70
2019-01-05T07:04:05.395Z,980.59
2019-01-05T07:05:05.618Z,980.73
2019-01-05T07:06:04.718Z,980.70
2019-01-05T07:07:04.599Z,980.50
2019-01-05T07:08:04.926Z,980.62
2019-01-05T07:09:05.073Z,980.78
2019-01-05T07:10:04.613Z,980.73
2019-01-05T07:11:04.887Z,980.64
2019-01-05T07:12:04.493Z,980.64
2019-01-05T07:13:05.053Z,980.75
2019-01-05T07:14:04.704Z,980.59
2019-01-05T07:15:05.037Z,980.75
2019-01-05T07:16:05.004Z,980.64
2019-01-05T07:17:04.857Z,980.89
2019-01-05T07:18:05.198Z,980.78
2019-01-05T07:19:05.462Z,980.87
2019-01-05T07:20:04.851Z,980.61
2019-01-05T07:21:05.465Z,980.70
2019-01-05T07:22:04.598Z,980.72
2019-01-05T07:23:04.840Z,980.78
2019-01-05T07:24:05.070Z,980.70
2019-01-05T07:25:05.108Z,980.78
2019-01-05T07:26:04.743Z,980.86
2019-01-05T07:27:05.080Z,980.78
2019-01-05T07:28:04.963Z,980.78
2019-01-05T07:29:10.646Z,980.81
2019-01-05T07:30:05.024Z,980.83
2019-01-05T07:31:05.385Z,980.78
2019-01-05T07:32:04.799Z,980.83
2019-01-05T07:33:05.425Z,980.78
2019-01-05T07:34:05.454Z,980.78
2019-01-05T07:35:04.711Z,980.94
2019-01-05T07:36:04.728Z,980.86
2019-01-05T07:37:04.719Z,980.66
2019-01-05T07:38:05.089Z,980.77
2019-01-05T07:39:05.154Z,980.77
2019-01-05T07:40:04.759Z,980.83
2019-01-05T07:41:05.149Z,980.80
2019-01-05T07:42:05.123Z,980.80
2019-01-05T07:43:04.695Z,980.80
2019-01-05T07:44:04.708Z,980.80
2019-01-05T07:45:04.714Z,980.86
2019-01-05T07:46:04.695Z,981.00
2019-01-05T07:47:04.744Z,980.74
2019-01-05T07:48:05.246Z,980.85
2019-01-05T07:49:04.538Z,980.91
2019-01-05T07:50:05.032Z,980.91
2019-01-05T07:51:04.735Z,980.77
2019-01-05T07:52:04.788Z,980.74
2019-01-05T07:53:04.972Z,980.91
2019-01-05T07:54:04.928Z,980.97
2019-01-05T07:55:05.232Z,980.83
2019-01-05T07:56:05.298Z,980.80
2019-01-05T07:57:04.723Z,980.88
2019-01-05T07:58:04.801Z,980.80
2019-01-05T07:59:05.496Z,980.82
2019-01-05T08:00:04.710Z,980.99
2019-01-05T08:01:04.745Z,980.94
2019-01-05T08:02:05.323Z,980.93
2019-01-05T08:03:04.850Z,980.93
2019-01-05T08:04:04.823Z,980.85
2019-01-05T08:05:05.135Z,980.77
2019-01-05T08:06:05.218Z,980.91
2019-01-05T08:07:05.460Z,980.88
2019-01-05T08:08:04.776Z,980.99
2019-01-05T08:09:05.180Z,980.82
2019-01-05T08:10:05.378Z,980.93
2019-01-05T08:11:04.839Z,980.88
2019-01-05T08:12:05.327Z,980.96
2019-01-05T08:13:04.848Z,980.85
2019-01-05T08:14:05.066Z,980.85
2019-01-05T08:15:04.687Z,980.88
2019-01-05T08:16:05.060Z,980.73
2019-01-05T08:17:05.383Z,980.82
2019-01-05T08:18:04.664Z,980.85
2019-01-05T08:19:04.861Z,980.96
2019-01-05T08:20:05.281Z,980.85
2019-01-05T08:21:05.246Z,980.79
2019-01-05T08:22:04.935Z,980.93
2019-01-05T08:23:05.466Z,980.96
2019-01-05T08:24:05.483Z,980.73
2019-01-05T08:25:04.636Z,980.90
2019-01-05T08:26:04.929Z,980.93
2019-01-05T08:27:04.702Z,980.93
2019-01-05T08:28:04.803Z,980.93
2019-01-05T08:29:10.125Z,980.90
2019-01-05T08:30:04.521Z,980.93
2019-01-05T08:31:04.919Z,980.73
2019-01-05T08:32:05.252Z,981.01
2019-01-05T08:33:05.614Z,980.90
2019-01-05T08:34:04.556Z,981.01
2019-01-05T08:35:05.030Z,980.81
2019-01-05T08:36:05.174Z,981.15
2019-01-05T08:37:05.177Z,981.06
2019-01-05T08:38:05.412Z,980.98
2019-01-05T08:39:05.428Z,981.15
2019-01-05T08:40:04.522Z,980.92
2019-01-05T08:41:05.083Z,980.98
2019-01-05T08:42:05.450Z,980.89
2019-01-05T08:43:05.249Z,980.73
2019-01-05T08:44:05.406Z,980.95
2019-01-05T08:45:05.566Z,980.84
2019-01-05T08:46:04.813Z,980.92
2019-01-05T08:47:05.380Z,980.84
2019-01-05T08:48:05.065Z,980.95
2019-01-05T08:49:04.790Z,980.75
2019-01-05T08:50:04.780Z,980.78
2019-01-05T08:51:05.241Z,980.95
2019-01-05T08:52:05.416Z,980.78
2019-01-05T08:53:04.895Z,980.81
2019-01-05T08:54:04.950Z,980.69
2019-01-05T08:55:04.547Z,980.89
2019-01-05T08:56:04.643Z,980.89
2019-01-05T08:57:04.752Z,980.83
2019-01-05T08:58:05.005Z,980.80
2019-01-05T08:59:04.955Z,980.75
2019-01-05T09:00:05.344Z,980.78
2019-01-05T09:01:04.598Z,980.89
2019-01-05T09:02:04.860Z,980.72
2019-01-05T09:03:04.966Z,980.83
2019-01-05T09:04:04.943Z,980.66
2019-01-05T09:05:05.236Z,980.94
2019-01-05T09:06:04.702Z,980.77
2019-01-05T09:07:04.713Z,980.69
2019-01-05T09:08:04.835Z,980.83
2019-01-05T09:09:05.885Z,980.91
2019-01-05T09:10:05.301Z,980.88
2019-01-05T09:11:04.967Z,980.80
2019-01-05T09:12:05.110Z,980.83
2019-01-05T09:13:04.699Z,980.94
2019-01-05T09:14:05.144Z,980.88
2019-01-05T09:15:05.288Z,980.85
2019-01-05T09:16:05.694Z,980.79
2019-01-05T09:17:05.545Z,980.85
2019-01-05T09:18:04.982Z,980.82
2019-01-05T09:19:05.007Z,980.99
2019-01-05T09:20:05.086Z,980.88
2019-01-05T09:21:04.766Z,980.96
2019-01-05T09:22:04.798Z,980.96
2019-01-05T09:23:04.653Z,980.88
2019-01-05T09:24:05.140Z,980.96
2019-01-05T09:25:05.291Z,980.93
2019-01-05T09:26:05.320Z,981.07
2019-01-05T09:27:04.620Z,980.90
2019-01-05T09:28:05.353Z,981.07
2019-01-05T09:29:09.766Z,981.02
2019-01-05T09:30:05.222Z,981.07
2019-01-05T09:31:05.318Z,981.10
2019-01-05T09:32:05.479Z,981.13
2019-01-05T09:33:05.057Z,981.18
2019-01-05T09:34:04.892Z,981.18
2019-01-05T09:35:04.915Z,981.04
2019-01-05T09:36:05.115Z,981.07
2019-01-05T09:37:05.517Z,981.07
2019-01-05T09:38:04.916Z,981.04
2019-01-05T09:39:05.620Z,981.10
2019-01-05T09:40:05.058Z,981.15
2019-01-05T09:41:04.998Z,981.15
2019-01-05T09:42:05.090Z,981.12
2019-01-05T09:43:04.684Z,981.29
2019-01-05T09:44:04.708Z,980.98
2019-01-05T09:45:04.980Z,981.09
2019-01-05T09:46:04.946Z,981.15
2019-01-05T09:47:04.576Z,981.18
2019-01-05T09:48:05.082Z,981.21
2019-01-05T09:49:05.353Z,981.23
2019-01-05T09:50:05.396Z,981.18
2019-01-05T09:51:04.718Z,981.18
2019-01-05T09:52:04.942Z,981.26
2019-01-05T09:53:05.416Z,981.12
2019-01-05T09:54:04.543Z,981.20
2019-01-05T09:55:04.647Z,981.26
2019-01-05T09:56:04.760Z,981.15
2019-01-05T09:57:05.085Z,981.15
2019-01-05T09:58:05.248Z,981.03
2019-01-05T09:59:05.262Z,981.06
2019-01-05T10:00:04.602Z,981.14
2019-01-05T10:01:04.705Z,981.17
2019-01-05T10:02:04.693Z,981.17
2019-01-05T10:03:04.675Z,981.06
2019-01-05T10:04:04.709Z,981.17
2019-01-05T10:05:04.741Z,981.11
2019-01-05T10:06:04.726Z,981.11
2019-01-05T10:07:04.683Z,981.06
2019-01-05T10:08:04.721Z,981.20
2019-01-05T10:09:05.370Z,981.14
2019-01-05T10:10:05.422Z,981.20
2019-01-05T10:11:04.875Z,981.14
2019-01-05T10:12:04.970Z,981.08
2019-01-05T10:13:05.133Z,981.05
2019-01-05T10:14:05.390Z,981.11
2019-01-05T10:15:04.868Z,981.14
2019-01-05T10:16:05.578Z,981.14
2019-01-05T10:17:05.491Z,981.00
2019-01-05T10:18:05.999Z,981.05
2019-01-05T10:19:04.604Z,981.08
2019-01-05T10:20:04.750Z,981.16
2019-01-05T10:21:05.293Z,981.13
2019-01-05T10:22:05.538Z,981.05
2019-01-05T10:23:05.417Z,981.11
2019-01-05T10:24:05.051Z,981.16
2019-01-05T10:25:04.712Z,981.27
2019-01-05T10:26:04.652Z,981.05
2019-01-05T10:27:04.957Z,981.02
2019-01-05T10:28:04.981Z,980.96
2019-01-05T10:29:10.199Z,981.24
2019-01-05T10:30:04.679Z,981.10
2019-01-05T10:31:04.857Z,981.16
2019-01-05T10:32:04.740Z,981.24
2019-01-05T10:33:05.083Z,981.07
2019-01-05T10:34:05.082Z,981.13
2019-01-05T10:35:05.351Z,981.04
2019-01-05T10:36:05.327Z,981.21
2019-01-05T10:37:05.455Z,981.21
2019-01-05T10:38:04.822Z,981.13
2019-01-05T10:39:04.844Z,981.10
2019-01-05T10:40:04.978Z,981.18
2019-01-05T10:41:04.955Z,981.15
2019-01-05T10:42:05.172Z,981.24
2019-01-05T10:43:04.710Z,981.12
2019-01-05T10:44:04.924Z,981.04
2019-01-05T10:45:05.340Z,981.12
2019-01-05T10:46:04.670Z,981.10
2019-01-05T10:47:04.800Z,981.21
2019-01-05T10:48:05.318Z,980.98
2019-01-05T10:49:04.691Z,981.07
2019-01-05T10:50:04.840Z,981.09
2019-01-05T10:51:05.233Z,980.92
2019-01-05T10:52:05.765Z,980.98
2019-01-05T10:53:05.125Z,980.98
2019-01-05T10:54:05.625Z,981.03
2019-01-05T10:55:06.098Z,981.09
2019-01-05T10:56:05.744Z,981.12
2019-01-05T10:57:06.388Z,981.12
2019-01-05T10:58:05.496Z,981.09
2019-01-05T10:59:06.817Z,980.89
2019-01-05T11:00:05.730Z,980.98
2019-01-05T11:01:05.008Z,981.03
2019-01-05T11:02:05.638Z,980.86
2019-01-05T11:03:05.220Z,980.92
2019-01-05T11:04:06.010Z,981.12
2019-01-05T11:05:07.333Z,981.00
2019-01-05T11:06:05.341Z,981.00
2019-01-05T11:07:06.780Z,980.94
2019-01-05T11:08:06.192Z,980.94
2019-01-05T11:09:05.985Z,981.03
2019-01-05T11:10:05.109Z,981.06
2019-01-05T11:11:05.768Z,981.17
2019-01-05T11:12:05.230Z,981.11
2019-01-05T11:13:05.285Z,981.11
2019-01-05T11:14:06.741Z,981.03
2019-01-05T11:15:05.384Z,981.03
2019-01-05T11:16:05.847Z,981.03
2019-01-05T11:17:05.994Z,981.06
2019-01-05T11:18:05.117Z,981.06
2019-01-05T11:19:05.448Z,980.97
2019-01-05T11:20:05.319Z,980.94
2019-01-05T11:21:05.807Z,980.97
2019-01-05T11:22:05.191Z,980.97
2019-01-05T11:23:05.200Z,980.94
2019-01-05T11:24:04.691Z,980.91
2019-01-05T11:25:04.674Z,981.00
2019-01-05T11:26:04.878Z,980.97
2019-01-05T11:27:05.356Z,981.03
2019-01-05T11:28:04.959Z,981.03
2019-01-05T11:29:04.654Z,981.00
2019-01-05T11:30:05.253Z,981.08
2019-01-05T11:31:05.453Z,981.05
2019-01-05T11:32:04.680Z,981.03
2019-01-05T11:33:04.604Z,980.97
2019-01-05T11:34:04.753Z,981.03
2019-01-05T11:35:04.685Z,981.03
2019-01-05T11:36:09.709Z,981.14
2019-01-05T11:37:05.147Z,981.17
2019-01-05T11:38:05.216Z,981.08
2019-01-05T11:39:05.438Z,981.03
2019-01-05T11:40:04.922Z,981.11
2019-01-05T11:41:04.780Z,981.17
2019-01-05T11:42:04.551Z,981.14
2019-01-05T11:43:05.189Z,981.19
2019-01-05T11:44:05.183Z,981.14
2019-01-05T11:45:05.444Z,981.22
2019-01-05T11:46:04.859Z,981.19
2019-01-05T11:47:05.738Z,981.22
2019-01-05T11:48:05.708Z,981.11
2019-01-05T11:49:04.969Z,981.25
2019-01-05T11:50:05.402Z,981.11
2019-01-05T11:51:05.336Z,981.25
2019-01-05T11:52:05.755Z,981.11
2019-01-05T11:53:05.817Z,981.08
2019-01-05T11:54:04.692Z,981.05
2019-01-05T11:55:04.785Z,981.16
2019-01-05T11:56:10.038Z,981.11
2019-01-05T11:57:05.415Z,981.16
2019-01-05T11:58:05.498Z,981.11
2019-01-05T11:59:04.863Z,981.02
2019-01-05T12:00:05.078Z,981.16
2019-01-05T12:01:06.847Z,981.13
2019-01-05T12:02:05.436Z,981.02
2019-01-05T12:03:04.620Z,980.96
2019-01-05T12:04:04.703Z,980.96
2019-01-05T12:05:05.214Z,981.02
2019-01-05T12:06:04.521Z,981.08
2019-01-05T12:07:04.986Z,980.94
2019-01-05T12:08:04.977Z,981.05
2019-01-05T12:09:08.357Z,981.05
2019-01-05T12:10:05.142Z,980.88
2019-01-05T12:11:05.506Z,981.10
2019-01-05T12:12:04.541Z,980.96
2019-01-05T12:13:04.739Z,981.05
2019-01-05T12:14:04.741Z,980.93
2019-01-05T12:15:04.706Z,981.02
2019-01-05T12:16:05.186Z,981.02
2019-01-05T12:17:05.125Z,981.22
2019-01-05T12:18:05.250Z,980.99
2019-01-05T12:19:05.081Z,981.05
2019-01-05T12:20:05.246Z,980.99
2019-01-05T12:21:05.641Z,980.99
2019-01-05T12:22:05.703Z,980.99
2019-01-05T12:23:05.466Z,981.02
2019-01-05T12:24:05.915Z,980.96
2019-01-05T12:25:05.546Z,980.96
2019-01-05T12:26:05.309Z,981.07
2019-01-05T12:27:05.835Z,980.96
2019-01-05T12:28:05.279Z,980.96